< < Back
Terminal Aerodrome Forecast


Current Version              Previous Versions:   1  2  3  4  5  6  7  8  9  

Terminal Aerodrome Forecast

787
FTUS42 KTAE 022332
TAFTLH
TAF
KTLH 022332Z 0300/0324 36004KT P6SM SCT040
      TEMPO 0310/0314 SCT008 BKN015
     FM031500 30010KT P6SM SCT040=



Latest METAR

358
SAUS80 KWBC 030800 RRB
MTRTLH
METAR KTLH 030753Z AUTO 31003KT 10SM CLR 26/24 A2982 RMK AO2 SLP096
T02610239 $


USA.gov is the U.S. government's official web portal to all federal, state and local government web resources and services.